sensor_id;sensor_type;location;lat;lon;timestamp;P1;durP1;ratioP1;P2;durP2;ratioP2
46078;SDS011;31820;51.880;-0.518;2022-11-20T00:01:48;1.90;;;0.82;;
46078;SDS011;31820;51.880;-0.518;2022-11-20T00:04:14;1.98;;;0.90;;
46078;SDS011;31820;51.880;-0.518;2022-11-20T00:06:39;2.40;;;1.05;;
46078;SDS011;31820;51.880;-0.518;2022-11-20T00:09:05;1.58;;;0.73;;
46078;SDS011;31820;51.880;-0.518;2022-11-20T00:11:30;2.78;;;1.08;;
46078;SDS011;31820;51.880;-0.518;2022-11-20T00:13:57;3.58;;;0.80;;
46078;SDS011;31820;51.880;-0.518;2022-11-20T00:16:25;1.65;;;0.60;;
46078;SDS011;31820;51.880;-0.518;2022-11-20T00:18:52;2.00;;;0.95;;
46078;SDS011;31820;51.880;-0.518;2022-11-20T00:21:20;1.73;;;0.85;;
46078;SDS011;31820;51.880;-0.518;2022-11-20T00:23:46;6.38;;;1.30;;
46078;SDS011;31820;51.880;-0.518;2022-11-20T00:26:13;3.80;;;1.15;;
46078;SDS011;31820;51.880;-0.518;2022-11-20T00:28:40;2.88;;;0.70;;
46078;SDS011;31820;51.880;-0.518;2022-11-20T00:31:14;2.63;;;1.00;;
46078;SDS011;31820;51.880;-0.518;2022-11-20T00:33:40;2.22;;;0.90;;
46078;SDS011;31820;51.880;-0.518;2022-11-20T00:36:08;3.13;;;1.05;;
46078;SDS011;31820;51.880;-0.518;2022-11-20T00:38:35;2.28;;;0.98;;
46078;SDS011;31820;51.880;-0.518;2022-11-20T00:41:03;3.67;;;0.93;;
46078;SDS011;31820;51.880;-0.518;2022-11-20T00:43:31;3.67;;;0.63;;
46078;SDS011;31820;51.880;-0.518;2022-11-20T00:46:18;1.92;;;0.70;;
46078;SDS011;31820;51.880;-0.518;2022-11-20T00:48:43;2.80;;;0.82;;
46078;SDS011;31820;51.880;-0.518;2022-11-20T00:51:10;4.35;;;0.90;;
46078;SDS011;31820;51.880;-0.518;2022-11-20T00:56:03;2.78;;;1.10;;
46078;SDS011;31820;51.880;-0.518;2022-11-20T00:58:31;4.15;;;0.95;;
46078;SDS011;31820;51.880;-0.518;2022-11-20T01:01:03;2.38;;;0.70;;
46078;SDS011;31820;51.880;-0.518;2022-11-20T01:03:31;1.60;;;0.90;;
46078;SDS011;31820;51.880;-0.518;2022-11-20T01:06:04;3.13;;;1.20;;
46078;SDS011;31820;51.880;-0.518;2022-11-20T01:08:31;3.40;;;0.90;;
46078;SDS011;31820;51.880;-0.518;2022-11-20T01:10:59;1.48;;;0.65;;
46078;SDS011;31820;51.880;-0.518;2022-11-20T01:13:29;1.75;;;0.77;;
46078;SDS011;31820;51.880;-0.518;2022-11-20T01:18:36;2.58;;;0.80;;
46078;SDS011;31820;51.880;-0.518;2022-11-20T01:21:05;1.35;;;0.77;;
46078;SDS011;31820;51.880;-0.518;2022-11-20T01:23:34;3.22;;;0.85;;
46078;SDS011;31820;51.880;-0.518;2022-11-20T01:26:02;1.80;;;1.10;;
46078;SDS011;31820;51.880;-0.518;2022-11-20T01:28:30;2.75;;;1.08;;
46078;SDS011;31820;51.880;-0.518;2022-11-20T01:30:56;1.73;;;0.80;;
46078;SDS011;31820;51.880;-0.518;2022-11-20T01:33:21;1.63;;;0.65;;
46078;SDS011;31820;51.880;-0.518;2022-11-20T01:35:47;2.83;;;0.93;;
46078;SDS011;31820;51.880;-0.518;2022-11-20T01:38:14;1.65;;;0.80;;
46078;SDS011;31820;51.880;-0.518;2022-11-20T01:43:18;1.55;;;0.88;;
46078;SDS011;31820;51.880;-0.518;2022-11-20T01:49:16;1.65;;;0.68;;
46078;SDS011;31820;51.880;-0.518;2022-11-20T01:51:54;3.13;;;1.13;;
46078;SDS011;31820;51.880;-0.518;2022-11-20T01:54:43;3.15;;;0.95;;
46078;SDS011;31820;51.880;-0.518;2022-11-20T01:57:20;2.38;;;0.90;;
46078;SDS011;31820;51.880;-0.518;2022-11-20T01:59:49;2.85;;;1.08;;
46078;SDS011;31820;51.880;-0.518;2022-11-20T02:02:19;2.97;;;0.82;;
46078;SDS011;31820;51.880;-0.518;2022-11-20T02:04:46;2.90;;;1.02;;
46078;SDS011;31820;51.880;-0.518;2022-11-20T02:07:13;2.55;;;1.08;;
46078;SDS011;31820;51.880;-0.518;2022-11-20T02:09:39;2.40;;;0.90;;
46078;SDS011;31820;51.880;-0.518;2022-11-20T02:12:04;2.25;;;0.88;;
46078;SDS011;31820;51.880;-0.518;2022-11-20T02:14:50;1.65;;;0.82;;
46078;SDS011;31820;51.880;-0.518;2022-11-20T02:17:16;2.10;;;1.25;;
46078;SDS011;31820;51.880;-0.518;2022-11-20T02:19:41;2.35;;;1.10;;
46078;SDS011;31820;51.880;-0.518;2022-11-20T02:24:39;3.22;;;1.05;;
46078;SDS011;31820;51.880;-0.518;2022-11-20T02:27:08;1.83;;;1.00;;
46078;SDS011;31820;51.880;-0.518;2022-11-20T02:29:39;2.03;;;1.00;;
46078;SDS011;31820;51.880;-0.518;2022-11-20T02:32:30;4.00;;;1.50;;
46078;SDS011;31820;51.880;-0.518;2022-11-20T02:34:58;3.22;;;1.50;;
46078;SDS011;31820;51.880;-0.518;2022-11-20T02:37:32;2.17;;;0.98;;
46078;SDS011;31820;51.880;-0.518;2022-11-20T02:40:02;2.90;;;0.90;;
46078;SDS011;31820;51.880;-0.518;2022-11-20T02:42:27;2.95;;;1.05;;
46078;SDS011;31820;51.880;-0.518;2022-11-20T02:44:53;2.45;;;1.10;;
46078;SDS011;31820;51.880;-0.518;2022-11-20T02:47:18;3.15;;;1.27;;
46078;SDS011;31820;51.880;-0.518;2022-11-20T02:49:44;3.05;;;1.30;;
46078;SDS011;31820;51.880;-0.518;2022-11-20T02:52:09;4.25;;;1.17;;
46078;SDS011;31820;51.880;-0.518;2022-11-20T02:54:35;3.08;;;1.30;;
46078;SDS011;31820;51.880;-0.518;2022-11-20T02:57:00;3.05;;;1.20;;
46078;SDS011;31820;51.880;-0.518;2022-11-20T02:59:25;2.28;;;1.10;;
46078;SDS011;31820;51.880;-0.518;2022-11-20T03:01:51;2.47;;;1.30;;
46078;SDS011;31820;51.880;-0.518;2022-11-20T03:04:16;2.55;;;1.13;;
46078;SDS011;31820;51.880;-0.518;2022-11-20T03:06:42;2.03;;;1.20;;
46078;SDS011;31820;51.880;-0.518;2022-11-20T03:09:07;2.08;;;1.13;;
46078;SDS011;31820;51.880;-0.518;2022-11-20T03:11:33;1.38;;;0.77;;
46078;SDS011;31820;51.880;-0.518;2022-11-20T03:14:01;2.20;;;1.10;;
46078;SDS011;31820;51.880;-0.518;2022-11-20T03:16:27;3.45;;;1.40;;
46078;SDS011;31820;51.880;-0.518;2022-11-20T03:18:53;2.47;;;1.50;;
46078;SDS011;31820;51.880;-0.518;2022-11-20T03:21:19;2.88;;;1.30;;
46078;SDS011;31820;51.880;-0.518;2022-11-20T03:23:44;3.70;;;1.25;;
46078;SDS011;31820;51.880;-0.518;2022-11-20T03:26:11;3.05;;;1.23;;
46078;SDS011;31820;51.880;-0.518;2022-11-20T03:28:42;2.08;;;1.00;;
46078;SDS011;31820;51.880;-0.518;2022-11-20T03:31:12;2.30;;;1.48;;
46078;SDS011;31820;51.880;-0.518;2022-11-20T03:33:40;2.42;;;1.23;;
46078;SDS011;31820;51.880;-0.518;2022-11-20T03:36:07;3.05;;;1.40;;
46078;SDS011;31820;51.880;-0.518;2022-11-20T03:38:35;2.58;;;1.38;;
46078;SDS011;31820;51.880;-0.518;2022-11-20T03:41:04;2.70;;;1.45;;
46078;SDS011;31820;51.880;-0.518;2022-11-20T03:43:31;1.85;;;1.33;;
46078;SDS011;31820;51.880;-0.518;2022-11-20T03:45:57;2.20;;;1.20;;
46078;SDS011;31820;51.880;-0.518;2022-11-20T03:48:23;2.25;;;1.33;;
46078;SDS011;31820;51.880;-0.518;2022-11-20T03:50:49;3.10;;;1.60;;
46078;SDS011;31820;51.880;-0.518;2022-11-20T03:53:15;3.90;;;1.83;;
46078;SDS011;31820;51.880;-0.518;2022-11-20T03:55:41;3.20;;;1.67;;
46078;SDS011;31820;51.880;-0.518;2022-11-20T03:58:07;1.73;;;1.25;;
46078;SDS011;31820;51.880;-0.518;2022-11-20T04:00:33;2.83;;;1.40;;
46078;SDS011;31820;51.880;-0.518;2022-11-20T04:02:58;3.03;;;1.45;;
46078;SDS011;31820;51.880;-0.518;2022-11-20T04:05:24;2.85;;;1.70;;
46078;SDS011;31820;51.880;-0.518;2022-11-20T04:07:50;2.55;;;1.40;;
46078;SDS011;31820;51.880;-0.518;2022-11-20T04:10:15;2.92;;;1.10;;
46078;SDS011;31820;51.880;-0.518;2022-11-20T04:12:41;2.40;;;1.15;;
46078;SDS011;31820;51.880;-0.518;2022-11-20T04:15:06;2.67;;;1.40;;
46078;SDS011;31820;51.880;-0.518;2022-11-20T04:17:32;3.78;;;1.58;;
46078;SDS011;31820;51.880;-0.518;2022-11-20T04:19:57;3.42;;;1.40;;
46078;SDS011;31820;51.880;-0.518;2022-11-20T04:22:23;3.25;;;1.20;;
46078;SDS011;31820;51.880;-0.518;2022-11-20T04:24:48;3.42;;;1.50;;
46078;SDS011;31820;51.880;-0.518;2022-11-20T04:27:14;1.92;;;1.10;;
46078;SDS011;31820;51.880;-0.518;2022-11-20T04:29:40;3.25;;;1.30;;
46078;SDS011;31820;51.880;-0.518;2022-11-20T04:32:05;2.20;;;1.35;;
46078;SDS011;31820;51.880;-0.518;2022-11-20T04:34:31;2.00;;;1.20;;
46078;SDS011;31820;51.880;-0.518;2022-11-20T04:36:56;3.00;;;1.55;;
46078;SDS011;31820;51.880;-0.518;2022-11-20T04:39:22;2.13;;;1.42;;
46078;SDS011;31820;51.880;-0.518;2022-11-20T04:41:47;2.83;;;1.30;;
46078;SDS011;31820;51.880;-0.518;2022-11-20T04:44:13;2.70;;;1.20;;
46078;SDS011;31820;51.880;-0.518;2022-11-20T04:46:39;2.78;;;1.63;;
46078;SDS011;31820;51.880;-0.518;2022-11-20T04:49:07;2.55;;;1.40;;
46078;SDS011;31820;51.880;-0.518;2022-11-20T04:51:33;2.75;;;1.45;;
46078;SDS011;31820;51.880;-0.518;2022-11-20T04:53:59;4.18;;;1.42;;
46078;SDS011;31820;51.880;-0.518;2022-11-20T04:56:25;2.47;;;1.38;;
46078;SDS011;31820;51.880;-0.518;2022-11-20T04:58:50;2.63;;;1.10;;
46078;SDS011;31820;51.880;-0.518;2022-11-20T05:01:20;3.47;;;1.60;;
46078;SDS011;31820;51.880;-0.518;2022-11-20T05:03:47;3.38;;;1.40;;
46078;SDS011;31820;51.880;-0.518;2022-11-20T05:06:14;2.90;;;1.45;;
46078;SDS011;31820;51.880;-0.518;2022-11-20T05:08:42;2.75;;;1.25;;
46078;SDS011;31820;51.880;-0.518;2022-11-20T05:11:09;2.88;;;1.42;;
46078;SDS011;31820;51.880;-0.518;2022-11-20T05:13:36;2.40;;;1.50;;
46078;SDS011;31820;51.880;-0.518;2022-11-20T05:16:03;2.92;;;1.38;;
46078;SDS011;31820;51.880;-0.518;2022-11-20T05:18:31;2.05;;;1.40;;
46078;SDS011;31820;51.880;-0.518;2022-11-20T05:20:57;2.25;;;1.40;;
46078;SDS011;31820;51.880;-0.518;2022-11-20T05:23:23;3.10;;;1.40;;
46078;SDS011;31820;51.880;-0.518;2022-11-20T05:25:51;2.97;;;1.40;;
46078;SDS011;31820;51.880;-0.518;2022-11-20T05:28:18;3.45;;;1.70;;
46078;SDS011;31820;51.880;-0.518;2022-11-20T05:30:44;4.40;;;1.63;;
46078;SDS011;31820;51.880;-0.518;2022-11-20T05:33:09;2.70;;;1.27;;
46078;SDS011;31820;51.880;-0.518;2022-11-20T05:35:35;2.70;;;1.50;;
46078;SDS011;31820;51.880;-0.518;2022-11-20T05:38:00;3.08;;;1.63;;
46078;SDS011;31820;51.880;-0.518;2022-11-20T05:40:26;2.40;;;1.00;;
46078;SDS011;31820;51.880;-0.518;2022-11-20T05:42:51;2.22;;;1.40;;
46078;SDS011;31820;51.880;-0.518;2022-11-20T05:45:16;2.72;;;1.25;;
46078;SDS011;31820;51.880;-0.518;2022-11-20T05:47:42;2.45;;;1.30;;
46078;SDS011;31820;51.880;-0.518;2022-11-20T05:50:07;3.13;;;1.50;;
46078;SDS011;31820;51.880;-0.518;2022-11-20T05:52:33;3.88;;;1.60;;
46078;SDS011;31820;51.880;-0.518;2022-11-20T05:54:58;3.78;;;1.40;;
46078;SDS011;31820;51.880;-0.518;2022-11-20T05:57:24;2.47;;;1.55;;
46078;SDS011;31820;51.880;-0.518;2022-11-20T05:59:49;2.42;;;1.40;;
46078;SDS011;31820;51.880;-0.518;2022-11-20T06:02:15;2.85;;;1.45;;
46078;SDS011;31820;51.880;-0.518;2022-11-20T06:04:41;2.60;;;1.20;;
46078;SDS011;31820;51.880;-0.518;2022-11-20T06:07:06;3.03;;;1.30;;
46078;SDS011;31820;51.880;-0.518;2022-11-20T06:09:32;2.45;;;1.30;;
46078;SDS011;31820;51.880;-0.518;2022-11-20T06:11:58;2.08;;;1.27;;
46078;SDS011;31820;51.880;-0.518;2022-11-20T06:14:23;2.25;;;1.10;;
46078;SDS011;31820;51.880;-0.518;2022-11-20T06:16:48;1.38;;;0.90;;
46078;SDS011;31820;51.880;-0.518;2022-11-20T06:19:14;2.70;;;1.50;;
46078;SDS011;31820;51.880;-0.518;2022-11-20T06:21:40;2.92;;;1.60;;
46078;SDS011;31820;51.880;-0.518;2022-11-20T06:24:06;2.13;;;1.23;;
46078;SDS011;31820;51.880;-0.518;2022-11-20T06:26:33;2.65;;;1.40;;
46078;SDS011;31820;51.880;-0.518;2022-11-20T06:28:59;2.45;;;1.65;;
46078;SDS011;31820;51.880;-0.518;2022-11-20T06:31:25;2.15;;;1.00;;
46078;SDS011;31820;51.880;-0.518;2022-11-20T06:33:51;2.73;;;1.33;;
46078;SDS011;31820;51.880;-0.518;2022-11-20T06:36:18;2.72;;;1.52;;
46078;SDS011;31820;51.880;-0.518;2022-11-20T06:38:46;2.13;;;1.00;;
46078;SDS011;31820;51.880;-0.518;2022-11-20T06:41:13;2.25;;;1.20;;
46078;SDS011;31820;51.880;-0.518;2022-11-20T06:43:40;2.00;;;0.90;;
46078;SDS011;31820;51.880;-0.518;2022-11-20T06:46:06;2.22;;;1.10;;
46078;SDS011;31820;51.880;-0.518;2022-11-20T06:48:34;1.90;;;1.10;;
46078;SDS011;31820;51.880;-0.518;2022-11-20T06:50:59;1.92;;;1.08;;
46078;SDS011;31820;51.880;-0.518;2022-11-20T06:53:27;1.50;;;0.93;;
46078;SDS011;31820;51.880;-0.518;2022-11-20T06:55:55;1.17;;;0.68;;
46078;SDS011;31820;51.880;-0.518;2022-11-20T06:58:21;1.70;;;0.80;;
46078;SDS011;31820;51.880;-0.518;2022-11-20T07:00:46;1.65;;;0.85;;
46078;SDS011;31820;51.880;-0.518;2022-11-20T07:03:12;2.20;;;1.15;;
46078;SDS011;31820;51.880;-0.518;2022-11-20T07:05:38;1.60;;;1.05;;
46078;SDS011;31820;51.880;-0.518;2022-11-20T07:08:03;2.38;;;1.00;;
46078;SDS011;31820;51.880;-0.518;2022-11-20T07:10:30;2.13;;;1.05;;
46078;SDS011;31820;51.880;-0.518;2022-11-20T07:12:56;2.10;;;1.10;;
46078;SDS011;31820;51.880;-0.518;2022-11-20T07:15:22;2.13;;;1.15;;
46078;SDS011;31820;51.880;-0.518;2022-11-20T07:17:49;1.65;;;0.63;;
46078;SDS011;31820;51.880;-0.518;2022-11-20T07:20:14;1.88;;;0.90;;
46078;SDS011;31820;51.880;-0.518;2022-11-20T07:22:40;2.08;;;0.90;;
46078;SDS011;31820;51.880;-0.518;2022-11-20T07:25:06;1.40;;;0.90;;
46078;SDS011;31820;51.880;-0.518;2022-11-20T07:27:32;1.65;;;0.90;;
46078;SDS011;31820;51.880;-0.518;2022-11-20T07:29:58;1.45;;;0.77;;
46078;SDS011;31820;51.880;-0.518;2022-11-20T07:32:23;2.28;;;0.90;;
46078;SDS011;31820;51.880;-0.518;2022-11-20T07:34:49;1.08;;;0.80;;
46078;SDS011;31820;51.880;-0.518;2022-11-20T07:37:15;2.20;;;0.90;;
46078;SDS011;31820;51.880;-0.518;2022-11-20T07:39:41;1.13;;;0.70;;
46078;SDS011;31820;51.880;-0.518;2022-11-20T07:42:07;1.27;;;0.70;;
46078;SDS011;31820;51.880;-0.518;2022-11-20T07:44:33;3.42;;;0.88;;
46078;SDS011;31820;51.880;-0.518;2022-11-20T07:46:59;1.42;;;0.80;;
46078;SDS011;31820;51.880;-0.518;2022-11-20T07:49:24;1.45;;;0.65;;
46078;SDS011;31820;51.880;-0.518;2022-11-20T07:51:50;1.33;;;0.70;;
46078;SDS011;31820;51.880;-0.518;2022-11-20T07:54:18;1.75;;;0.82;;
46078;SDS011;31820;51.880;-0.518;2022-11-20T07:56:43;1.10;;;0.60;;
46078;SDS011;31820;51.880;-0.518;2022-11-20T07:59:09;1.15;;;0.60;;
46078;SDS011;31820;51.880;-0.518;2022-11-20T08:04:02;1.77;;;1.00;;
46078;SDS011;31820;51.880;-0.518;2022-11-20T08:06:28;1.73;;;0.70;;
46078;SDS011;31820;51.880;-0.518;2022-11-20T08:08:53;2.05;;;0.88;;
46078;SDS011;31820;51.880;-0.518;2022-11-20T08:11:19;1.40;;;0.70;;
46078;SDS011;31820;51.880;-0.518;2022-11-20T08:14:03;0.95;;;0.45;;
46078;SDS011;31820;51.880;-0.518;2022-11-20T08:16:37;2.13;;;0.70;;
46078;SDS011;31820;51.880;-0.518;2022-11-20T08:19:04;1.00;;;0.50;;
46078;SDS011;31820;51.880;-0.518;2022-11-20T08:21:29;1.35;;;0.90;;
46078;SDS011;31820;51.880;-0.518;2022-11-20T08:23:56;1.63;;;0.60;;
46078;SDS011;31820;51.880;-0.518;2022-11-20T08:26:22;1.23;;;0.70;;
46078;SDS011;31820;51.880;-0.518;2022-11-20T08:28:48;0.88;;;0.50;;
46078;SDS011;31820;51.880;-0.518;2022-11-20T08:31:14;1.25;;;0.70;;
46078;SDS011;31820;51.880;-0.518;2022-11-20T08:33:39;1.13;;;0.70;;
46078;SDS011;31820;51.880;-0.518;2022-11-20T08:36:05;1.00;;;0.50;;
46078;SDS011;31820;51.880;-0.518;2022-11-20T08:38:31;1.13;;;0.50;;
46078;SDS011;31820;51.880;-0.518;2022-11-20T08:40:58;1.30;;;0.60;;
46078;SDS011;31820;51.880;-0.518;2022-11-20T08:43:42;1.00;;;0.50;;
46078;SDS011;31820;51.880;-0.518;2022-11-20T08:46:08;2.17;;;0.68;;
46078;SDS011;31820;51.880;-0.518;2022-11-20T08:48:34;1.42;;;0.80;;
46078;SDS011;31820;51.880;-0.518;2022-11-20T08:50:59;1.40;;;0.57;;
46078;SDS011;31820;51.880;-0.518;2022-11-20T08:53:25;0.82;;;0.47;;
46078;SDS011;31820;51.880;-0.518;2022-11-20T08:55:51;1.33;;;0.70;;
46078;SDS011;31820;51.880;-0.518;2022-11-20T08:58:17;1.13;;;0.60;;
46078;SDS011;31820;51.880;-0.518;2022-11-20T09:00:42;0.77;;;0.50;;
46078;SDS011;31820;51.880;-0.518;2022-11-20T09:03:08;1.55;;;0.68;;
46078;SDS011;31820;51.880;-0.518;2022-11-20T09:05:33;0.93;;;0.50;;
46078;SDS011;31820;51.880;-0.518;2022-11-20T09:07:59;0.98;;;0.50;;
46078;SDS011;31820;51.880;-0.518;2022-11-20T09:10:28;0.95;;;0.50;;
46078;SDS011;31820;51.880;-0.518;2022-11-20T09:12:54;1.10;;;0.60;;
46078;SDS011;31820;51.880;-0.518;2022-11-20T09:15:23;1.48;;;0.70;;
46078;SDS011;31820;51.880;-0.518;2022-11-20T09:17:56;0.95;;;0.57;;
46078;SDS011;31820;51.880;-0.518;2022-11-20T09:20:23;1.00;;;0.50;;
46078;SDS011;31820;51.880;-0.518;2022-11-20T09:22:49;1.33;;;0.60;;
46078;SDS011;31820;51.880;-0.518;2022-11-20T09:25:15;1.42;;;0.70;;
46078;SDS011;31820;51.880;-0.518;2022-11-20T09:27:40;1.73;;;0.60;;
46078;SDS011;31820;51.880;-0.518;2022-11-20T09:30:11;1.33;;;0.50;;
46078;SDS011;31820;51.880;-0.518;2022-11-20T09:32:41;1.20;;;0.50;;
46078;SDS011;31820;51.880;-0.518;2022-11-20T09:35:07;2.45;;;0.70;;
46078;SDS011;31820;51.880;-0.518;2022-11-20T09:37:34;2.50;;;0.60;;
46078;SDS011;31820;51.880;-0.518;2022-11-20T09:39:59;0.90;;;0.70;;
46078;SDS011;31820;51.880;-0.518;2022-11-20T09:56:28;0.95;;;0.40;;
46078;SDS011;31820;51.880;-0.518;2022-11-20T09:58:54;1.30;;;0.50;;
46078;SDS011;31820;51.880;-0.518;2022-11-20T10:01:29;1.13;;;0.50;;
46078;SDS011;31820;51.880;-0.518;2022-11-20T10:04:03;1.52;;;0.50;;
46078;SDS011;31820;51.880;-0.518;2022-11-20T10:17:00;1.50;;;0.47;;
46078;SDS011;31820;51.880;-0.518;2022-11-20T10:24:56;1.38;;;0.50;;
46078;SDS011;31820;51.880;-0.518;2022-11-20T10:32:39;2.47;;;0.55;;
46078;SDS011;31820;51.880;-0.518;2022-11-20T10:38:00;1.85;;;0.50;;
46078;SDS011;31820;51.880;-0.518;2022-11-20T10:43:16;1.27;;;0.40;;
46078;SDS011;31820;51.880;-0.518;2022-11-20T10:45:50;2.05;;;0.60;;
46078;SDS011;31820;51.880;-0.518;2022-11-20T10:50:50;2.13;;;0.70;;
46078;SDS011;31820;51.880;-0.518;2022-11-20T10:55:57;1.20;;;0.40;;
46078;SDS011;31820;51.880;-0.518;2022-11-20T10:58:45;1.90;;;0.60;;
46078;SDS011;31820;51.880;-0.518;2022-11-20T11:01:17;1.80;;;0.63;;
46078;SDS011;31820;51.880;-0.518;2022-11-20T11:03:47;1.10;;;0.30;;
46078;SDS011;31820;51.880;-0.518;2022-11-20T11:08:51;2.72;;;0.68;;
46078;SDS011;31820;51.880;-0.518;2022-11-20T11:11:28;1.48;;;0.52;;
46078;SDS011;31820;51.880;-0.518;2022-11-20T11:14:08;1.88;;;0.60;;
46078;SDS011;31820;51.880;-0.518;2022-11-20T11:16:51;2.05;;;0.65;;
46078;SDS011;31820;51.880;-0.518;2022-11-20T11:19:21;1.05;;;0.43;;
46078;SDS011;31820;51.880;-0.518;2022-11-20T11:21:51;2.65;;;0.60;;
46078;SDS011;31820;51.880;-0.518;2022-11-20T11:24:27;5.95;;;0.50;;
46078;SDS011;31820;51.880;-0.518;2022-11-20T11:26:55;1.58;;;0.63;;
46078;SDS011;31820;51.880;-0.518;2022-11-20T11:29:21;2.78;;;0.60;;
46078;SDS011;31820;51.880;-0.518;2022-11-20T11:31:47;2.90;;;0.68;;
46078;SDS011;31820;51.880;-0.518;2022-11-20T11:34:13;2.15;;;0.70;;
46078;SDS011;31820;51.880;-0.518;2022-11-20T11:36:40;4.07;;;0.93;;
46078;SDS011;31820;51.880;-0.518;2022-11-20T11:39:14;1.87;;;0.53;;
46078;SDS011;31820;51.880;-0.518;2022-11-20T11:41:42;3.53;;;0.68;;
46078;SDS011;31820;51.880;-0.518;2022-11-20T11:44:15;4.55;;;0.98;;
46078;SDS011;31820;51.880;-0.518;2022-11-20T11:47:00;2.13;;;0.63;;
46078;SDS011;31820;51.880;-0.518;2022-11-20T11:49:27;3.75;;;0.95;;
46078;SDS011;31820;51.880;-0.518;2022-11-20T11:57:20;4.20;;;1.23;;
46078;SDS011;31820;51.880;-0.518;2022-11-20T12:09:10;6.95;;;1.10;;
46078;SDS011;31820;51.880;-0.518;2022-11-20T12:11:21;6.90;;;1.40;;
46078;SDS011;31820;51.880;-0.518;2022-11-20T12:13:58;6.32;;;1.20;;
46078;SDS011;31820;51.880;-0.518;2022-11-20T12:16:30;5.63;;;1.08;;
46078;SDS011;31820;51.880;-0.518;2022-11-20T12:19:01;6.60;;;1.55;;
46078;SDS011;31820;51.880;-0.518;2022-11-20T12:32:22;6.50;;;1.10;;
46078;SDS011;31820;51.880;-0.518;2022-11-20T12:43:27;5.63;;;1.60;;
46078;SDS011;31820;51.880;-0.518;2022-11-20T12:46:22;4.55;;;1.30;;
46078;SDS011;31820;51.880;-0.518;2022-11-20T12:57:18;3.85;;;1.20;;
46078;SDS011;31820;51.880;-0.518;2022-11-20T13:00:01;5.68;;;1.77;;
46078;SDS011;31820;51.880;-0.518;2022-11-20T13:05:39;4.15;;;1.20;;
46078;SDS011;31820;51.880;-0.518;2022-11-20T13:08:08;3.85;;;1.02;;
46078;SDS011;31820;51.880;-0.518;2022-11-20T13:13:17;4.50;;;1.10;;
46078;SDS011;31820;51.880;-0.518;2022-11-20T13:18:41;2.65;;;0.85;;
46078;SDS011;31820;51.880;-0.518;2022-11-20T13:24:19;4.88;;;0.90;;
46078;SDS011;31820;51.880;-0.518;2022-11-20T13:26:45;4.40;;;1.10;;
46078;SDS011;31820;51.880;-0.518;2022-11-20T13:29:16;7.10;;;1.40;;
46078;SDS011;31820;51.880;-0.518;2022-11-20T13:31:44;5.40;;;1.10;;
46078;SDS011;31820;51.880;-0.518;2022-11-20T13:34:12;3.80;;;1.10;;
46078;SDS011;31820;51.880;-0.518;2022-11-20T13:36:49;3.25;;;1.08;;
46078;SDS011;31820;51.880;-0.518;2022-11-20T13:39:26;4.47;;;1.10;;
46078;SDS011;31820;51.880;-0.518;2022-11-20T13:41:57;4.32;;;1.08;;
46078;SDS011;31820;51.880;-0.518;2022-11-20T13:47:03;3.63;;;1.02;;
46078;SDS011;31820;51.880;-0.518;2022-11-20T13:49:33;4.00;;;0.95;;
46078;SDS011;31820;51.880;-0.518;2022-11-20T14:00:21;4.50;;;0.88;;
46078;SDS011;31820;51.880;-0.518;2022-11-20T14:05:23;2.67;;;0.82;;
46078;SDS011;31820;51.880;-0.518;2022-11-20T14:07:49;3.15;;;1.13;;
46078;SDS011;31820;51.880;-0.518;2022-11-20T14:10:27;5.22;;;1.40;;
46078;SDS011;31820;51.880;-0.518;2022-11-20T14:12:53;4.07;;;1.00;;
46078;SDS011;31820;51.880;-0.518;2022-11-20T14:15:27;3.97;;;0.70;;
46078;SDS011;31820;51.880;-0.518;2022-11-20T14:17:53;4.97;;;0.80;;
46078;SDS011;31820;51.880;-0.518;2022-11-20T14:20:18;3.92;;;1.10;;
46078;SDS011;31820;51.880;-0.518;2022-11-20T14:22:49;3.20;;;1.20;;
46078;SDS011;31820;51.880;-0.518;2022-11-20T14:27:41;3.88;;;1.42;;
46078;SDS011;31820;51.880;-0.518;2022-11-20T14:30:20;3.22;;;1.10;;
46078;SDS011;31820;51.880;-0.518;2022-11-20T14:32:48;2.65;;;1.10;;
46078;SDS011;31820;51.880;-0.518;2022-11-20T14:35:34;3.42;;;1.02;;
46078;SDS011;31820;51.880;-0.518;2022-11-20T14:38:02;2.60;;;0.80;;
46078;SDS011;31820;51.880;-0.518;2022-11-20T14:40:29;5.72;;;1.30;;
46078;SDS011;31820;51.880;-0.518;2022-11-20T14:42:55;3.53;;;0.90;;
46078;SDS011;31820;51.880;-0.518;2022-11-20T14:45:21;2.08;;;0.57;;
46078;SDS011;31820;51.880;-0.518;2022-11-20T14:47:48;3.67;;;0.80;;
46078;SDS011;31820;51.880;-0.518;2022-11-20T14:50:24;3.80;;;1.00;;
46078;SDS011;31820;51.880;-0.518;2022-11-20T14:57:54;3.00;;;0.90;;
46078;SDS011;31820;51.880;-0.518;2022-11-20T15:00:22;2.35;;;1.02;;
46078;SDS011;31820;51.880;-0.518;2022-11-20T15:02:49;3.47;;;0.77;;
46078;SDS011;31820;51.880;-0.518;2022-11-20T15:07:46;3.30;;;1.30;;
46078;SDS011;31820;51.880;-0.518;2022-11-20T15:12:48;2.70;;;0.80;;
46078;SDS011;31820;51.880;-0.518;2022-11-20T15:15:17;2.88;;;0.90;;
46078;SDS011;31820;51.880;-0.518;2022-11-20T15:17:46;3.53;;;0.80;;
46078;SDS011;31820;51.880;-0.518;2022-11-20T15:20:13;4.95;;;0.88;;
46078;SDS011;31820;51.880;-0.518;2022-11-20T15:22:43;5.18;;;1.02;;
46078;SDS011;31820;51.880;-0.518;2022-11-20T15:25:15;4.32;;;1.33;;
46078;SDS011;31820;51.880;-0.518;2022-11-20T15:27:42;2.95;;;0.90;;
46078;SDS011;31820;51.880;-0.518;2022-11-20T15:30:18;4.10;;;1.27;;
46078;SDS011;31820;51.880;-0.518;2022-11-20T15:32:45;4.07;;;1.55;;
46078;SDS011;31820;51.880;-0.518;2022-11-20T15:35:11;2.85;;;0.70;;
46078;SDS011;31820;51.880;-0.518;2022-11-20T15:37:38;3.03;;;1.00;;
46078;SDS011;31820;51.880;-0.518;2022-11-20T15:40:04;5.38;;;1.15;;
46078;SDS011;31820;51.880;-0.518;2022-11-20T15:42:30;2.65;;;0.95;;
46078;SDS011;31820;51.880;-0.518;2022-11-20T15:44:56;3.55;;;0.95;;
46078;SDS011;31820;51.880;-0.518;2022-11-20T15:47:25;2.30;;;0.90;;
46078;SDS011;31820;51.880;-0.518;2022-11-20T15:49:55;2.58;;;0.98;;
46078;SDS011;31820;51.880;-0.518;2022-11-20T15:52:21;4.53;;;1.00;;
46078;SDS011;31820;51.880;-0.518;2022-11-20T15:54:46;1.98;;;0.70;;
46078;SDS011;31820;51.880;-0.518;2022-11-20T15:57:12;4.07;;;1.08;;
46078;SDS011;31820;51.880;-0.518;2022-11-20T15:59:38;3.60;;;1.00;;
46078;SDS011;31820;51.880;-0.518;2022-11-20T16:02:12;4.07;;;1.27;;
46078;SDS011;31820;51.880;-0.518;2022-11-20T16:04:39;3.80;;;0.73;;
46078;SDS011;31820;51.880;-0.518;2022-11-20T16:07:04;3.65;;;0.90;;
46078;SDS011;31820;51.880;-0.518;2022-11-20T16:09:30;4.47;;;1.20;;
46078;SDS011;31820;51.880;-0.518;2022-11-20T16:11:56;4.13;;;1.00;;
46078;SDS011;31820;51.880;-0.518;2022-11-20T16:14:25;3.22;;;1.15;;
46078;SDS011;31820;51.880;-0.518;2022-11-20T16:17:10;3.13;;;0.88;;
46078;SDS011;31820;51.880;-0.518;2022-11-20T16:19:36;1.90;;;0.73;;
46078;SDS011;31820;51.880;-0.518;2022-11-20T16:22:01;3.33;;;1.10;;
46078;SDS011;31820;51.880;-0.518;2022-11-20T16:24:27;2.63;;;0.80;;
46078;SDS011;31820;51.880;-0.518;2022-11-20T16:26:53;4.30;;;1.20;;
46078;SDS011;31820;51.880;-0.518;2022-11-20T16:29:19;2.93;;;1.07;;
46078;SDS011;31820;51.880;-0.518;2022-11-20T16:31:44;3.08;;;1.40;;
46078;SDS011;31820;51.880;-0.518;2022-11-20T16:34:10;3.65;;;1.10;;
46078;SDS011;31820;51.880;-0.518;2022-11-20T16:36:36;3.60;;;1.17;;
46078;SDS011;31820;51.880;-0.518;2022-11-20T16:39:05;2.08;;;1.17;;
46078;SDS011;31820;51.880;-0.518;2022-11-20T16:41:31;2.50;;;1.00;;
46078;SDS011;31820;51.880;-0.518;2022-11-20T16:46:26;2.00;;;0.63;;
46078;SDS011;31820;51.880;-0.518;2022-11-20T16:48:54;3.38;;;0.77;;
46078;SDS011;31820;51.880;-0.518;2022-11-20T16:51:31;3.42;;;1.13;;
46078;SDS011;31820;51.880;-0.518;2022-11-20T16:54:03;3.20;;;1.30;;
46078;SDS011;31820;51.880;-0.518;2022-11-20T16:56:29;1.50;;;0.75;;
46078;SDS011;31820;51.880;-0.518;2022-11-20T16:58:56;2.08;;;0.82;;
46078;SDS011;31820;51.880;-0.518;2022-11-20T17:01:24;2.67;;;1.00;;
46078;SDS011;31820;51.880;-0.518;2022-11-20T17:04:02;4.13;;;1.23;;
46078;SDS011;31820;51.880;-0.518;2022-11-20T17:06:30;2.53;;;1.00;;